sensor_id;sensor_type;location;lat;lon;timestamp;pressure;altitude;pressure_sealevel;temperature;humidity
60373;BME280;46216;52.220;5.134;2023-01-15T00:00:09;99921.53;;;7.35;100.00
60373;BME280;46216;52.220;5.134;2023-01-15T00:02:35;99912.84;;;7.33;100.00
60373;BME280;46216;52.220;5.134;2023-01-15T00:05:00;99919.13;;;7.32;100.00
60373;BME280;46216;52.220;5.134;2023-01-15T00:07:28;99920.81;;;7.33;100.00
60373;BME280;46216;52.220;5.134;2023-01-15T00:09:53;99920.09;;;7.31;100.00
60373;BME280;46216;52.220;5.134;2023-01-15T00:12:18;99918.28;;;7.31;100.00
60373;BME280;46216;52.220;5.134;2023-01-15T00:14:44;99909.25;;;7.34;100.00
60373;BME280;46216;52.220;5.134;2023-01-15T00:17:10;99910.09;;;7.34;100.00
60373;BME280;46216;52.220;5.134;2023-01-15T00:19:35;99913.59;;;7.35;100.00
60373;BME280;46216;52.220;5.134;2023-01-15T00:22:01;99910.09;;;7.34;100.00
60373;BME280;46216;52.220;5.134;2023-01-15T00:24:27;99911.91;;;7.34;100.00
60373;BME280;46216;52.220;5.134;2023-01-15T00:27:10;99906.72;;;7.32;100.00
60373;BME280;46216;52.220;5.134;2023-01-15T00:29:54;99901.41;;;7.32;100.00
60373;BME280;46216;52.220;5.134;2023-01-15T00:32:19;99900.56;;;7.32;100.00
60373;BME280;46216;52.220;5.134;2023-01-15T00:34:45;99896.94;;;7.33;100.00
60373;BME280;46216;52.220;5.134;2023-01-15T00:37:10;99916.69;;;7.29;100.00
60373;BME280;46216;52.220;5.134;2023-01-15T00:39:35;99908.75;;;7.29;100.00
60373;BME280;46216;52.220;5.134;2023-01-15T00:42:01;99903.22;;;7.32;100.00
60373;BME280;46216;52.220;5.134;2023-01-15T00:44:27;99898.03;;;7.30;100.00
60373;BME280;46216;52.220;5.134;2023-01-15T00:46:52;99902.25;;;7.33;100.00
60373;BME280;46216;52.220;5.134;2023-01-15T00:49:18;99890.81;;;7.32;100.00
60373;BME280;46216;52.220;5.134;2023-01-15T00:51:43;99891.16;;;7.28;100.00
60373;BME280;46216;52.220;5.134;2023-01-15T00:54:08;99900.56;;;7.32;100.00
60373;BME280;46216;52.220;5.134;2023-01-15T00:56:34;99896.34;;;7.29;100.00
60373;BME280;46216;52.220;5.134;2023-01-15T00:59:00;99899.72;;;7.31;100.00
60373;BME280;46216;52.220;5.134;2023-01-15T01:01:26;99894.31;;;7.33;100.00
60373;BME280;46216;52.220;5.134;2023-01-15T01:03:51;99898.88;;;7.31;100.00
60373;BME280;46216;52.220;5.134;2023-01-15T01:06:18;99902.47;;;7.30;100.00
60373;BME280;46216;52.220;5.134;2023-01-15T01:08:44;99900.56;;;7.32;100.00
60373;BME280;46216;52.220;5.134;2023-01-15T01:11:13;99906.84;;;7.31;100.00
60373;BME280;46216;52.220;5.134;2023-01-15T01:13:38;99902.81;;;7.25;100.00
60373;BME280;46216;52.220;5.134;2023-01-15T01:16:20;99908.03;;;7.27;100.00
60373;BME280;46216;52.220;5.134;2023-01-15T01:18:45;99913.31;;;7.27;100.00
60373;BME280;46216;52.220;5.134;2023-01-15T01:21:11;99917.97;;;7.23;100.00
60373;BME280;46216;52.220;5.134;2023-01-15T01:23:36;99912.69;;;7.23;100.00
60373;BME280;46216;52.220;5.134;2023-01-15T01:26:01;99906.66;;;7.21;100.00
60373;BME280;46216;52.220;5.134;2023-01-15T01:28:27;99913.78;;;7.21;100.00
60373;BME280;46216;52.220;5.134;2023-01-15T01:30:52;99912.94;;;7.20;100.00
60373;BME280;46216;52.220;5.134;2023-01-15T01:33:17;99900.53;;;7.21;100.00
60373;BME280;46216;52.220;5.134;2023-01-15T01:35:49;99908.47;;;7.21;100.00
60373;BME280;46216;52.220;5.134;2023-01-15T01:38:15;99913.88;;;7.19;100.00
60373;BME280;46216;52.220;5.134;2023-01-15T01:40:40;99914.00;;;7.18;100.00
60373;BME280;46216;52.220;5.134;2023-01-15T01:43:21;99914.44;;;7.11;100.00
60373;BME280;46216;52.220;5.134;2023-01-15T01:45:47;99912.41;;;7.15;100.00
60373;BME280;46216;52.220;5.134;2023-01-15T01:48:13;99916.13;;;7.13;100.00
60373;BME280;46216;52.220;5.134;2023-01-15T01:50:41;99918.78;;;7.13;100.00
60373;BME280;46216;52.220;5.134;2023-01-15T01:53:11;99918.16;;;7.09;100.00
60373;BME280;46216;52.220;5.134;2023-01-15T01:55:59;99925.25;;;7.08;100.00
60373;BME280;46216;52.220;5.134;2023-01-15T01:58:29;99926.22;;;7.07;100.00
60373;BME280;46216;52.220;5.134;2023-01-15T02:00:55;99925.59;;;7.04;100.00
60373;BME280;46216;52.220;5.134;2023-01-15T02:03:24;99918.50;;;7.04;100.00
60373;BME280;46216;52.220;5.134;2023-01-15T02:05:54;99910.56;;;7.04;100.00
60373;BME280;46216;52.220;5.134;2023-01-15T02:08:21;99913.19;;;7.04;100.00
60373;BME280;46216;52.220;5.134;2023-01-15T02:10:51;99901.84;;;7.02;100.00
60373;BME280;46216;52.220;5.134;2023-01-15T02:13:33;99908.88;;;7.03;100.00
60373;BME280;46216;52.220;5.134;2023-01-15T02:18:35;99909.81;;;7.02;100.00
60373;BME280;46216;52.220;5.134;2023-01-15T02:26:44;99903.66;;;7.02;100.00
60373;BME280;46216;52.220;5.134;2023-01-15T02:29:21;99911.75;;;7.00;100.00
60373;BME280;46216;52.220;5.134;2023-01-15T02:31:49;99904.72;;;6.99;100.00
60373;BME280;46216;52.220;5.134;2023-01-15T02:34:31;99899.44;;;6.99;100.00
60373;BME280;46216;52.220;5.134;2023-01-15T02:37:12;99906.75;;;6.96;100.00
60373;BME280;46216;52.220;5.134;2023-01-15T02:39:41;99901.25;;;6.99;100.00
60373;BME280;46216;52.220;5.134;2023-01-15T02:42:09;99901.47;;;6.96;100.00
60373;BME280;46216;52.220;5.134;2023-01-15T02:44:40;99900.53;;;6.97;100.00
60373;BME280;46216;52.220;5.134;2023-01-15T02:47:07;99888.00;;;6.99;100.00
60373;BME280;46216;52.220;5.134;2023-01-15T02:49:35;99895.94;;;6.99;100.00
60373;BME280;46216;52.220;5.134;2023-01-15T02:52:13;99896.28;;;6.94;100.00
60373;BME280;46216;52.220;5.134;2023-01-15T02:54:42;99893.72;;;6.93;100.00
60373;BME280;46216;52.220;5.134;2023-01-15T02:57:11;99886.53;;;6.95;100.00
60373;BME280;46216;52.220;5.134;2023-01-15T02:59:42;99900.75;;;6.94;100.00
60373;BME280;46216;52.220;5.134;2023-01-15T03:02:14;99894.69;;;6.92;100.00
60373;BME280;46216;52.220;5.134;2023-01-15T03:04:47;99891.44;;;6.88;100.00
60373;BME280;46216;52.220;5.134;2023-01-15T03:09:45;99895.88;;;6.87;100.00
60373;BME280;46216;52.220;5.134;2023-01-15T03:12:17;99896.63;;;6.90;100.00
60373;BME280;46216;52.220;5.134;2023-01-15T03:17:38;99885.28;;;6.87;100.00
60373;BME280;46216;52.220;5.134;2023-01-15T03:20:11;99884.66;;;6.84;100.00
60373;BME280;46216;52.220;5.134;2023-01-15T03:22:44;99887.53;;;6.81;100.00
60373;BME280;46216;52.220;5.134;2023-01-15T03:25:16;99889.22;;;6.82;100.00
60373;BME280;46216;52.220;5.134;2023-01-15T03:27:43;99880.56;;;6.80;100.00
60373;BME280;46216;52.220;5.134;2023-01-15T03:30:12;99880.03;;;6.75;100.00
60373;BME280;46216;52.220;5.134;2023-01-15T03:32:38;99879.19;;;6.74;100.00
60373;BME280;46216;52.220;5.134;2023-01-15T03:35:06;99882.91;;;6.72;100.00
60373;BME280;46216;52.220;5.134;2023-01-15T03:37:32;99871.59;;;6.70;100.00
60373;BME280;46216;52.220;5.134;2023-01-15T03:39:57;99870.50;;;6.72;100.00
60373;BME280;46216;52.220;5.134;2023-01-15T03:42:49;99878.56;;;6.71;100.00
60373;BME280;46216;52.220;5.134;2023-01-15T03:45:39;99880.69;;;6.66;100.00
60373;BME280;46216;52.220;5.134;2023-01-15T03:48:48;99888.63;;;6.66;100.00
60373;BME280;46216;52.220;5.134;2023-01-15T03:51:55;99878.16;;;6.64;100.00
60373;BME280;46216;52.220;5.134;2023-01-15T03:54:23;99880.06;;;6.62;100.00
60373;BME280;46216;52.220;5.134;2023-01-15T03:57:10;99876.56;;;6.61;100.00
60373;BME280;46216;52.220;5.134;2023-01-15T03:59:44;99881.78;;;6.63;100.00
60373;BME280;46216;52.220;5.134;2023-01-15T04:02:12;99878.16;;;6.64;100.00
60373;BME280;46216;52.220;5.134;2023-01-15T04:04:39;99884.50;;;6.61;100.00
60373;BME280;46216;52.220;5.134;2023-01-15T04:07:05;99881.88;;;6.61;100.00
60373;BME280;46216;52.220;5.134;2023-01-15T04:09:31;99876.47;;;6.63;100.00
60373;BME280;46216;52.220;5.134;2023-01-15T04:12:01;99880.69;;;6.66;100.00
60373;BME280;46216;52.220;5.134;2023-01-15T04:14:28;99884.28;;;6.64;100.00
60373;BME280;46216;52.220;5.134;2023-01-15T04:16:54;99871.06;;;6.64;100.00
60373;BME280;46216;52.220;5.134;2023-01-15T04:19:19;99875.38;;;6.66;100.00
60373;BME280;46216;52.220;5.134;2023-01-15T04:21:45;99880.94;;;6.62;100.00
60373;BME280;46216;52.220;5.134;2023-01-15T04:24:10;99874.53;;;6.65;100.00
60373;BME280;46216;52.220;5.134;2023-01-15T04:26:35;99873.50;;;6.68;100.00
60373;BME280;46216;52.220;5.134;2023-01-15T04:29:00;99871.91;;;6.65;100.00
60373;BME280;46216;52.220;5.134;2023-01-15T04:31:26;99868.19;;;6.68;100.00
60373;BME280;46216;52.220;5.134;2023-01-15T04:33:52;99865.44;;;6.69;100.00
60373;BME280;46216;52.220;5.134;2023-01-15T04:36:17;99868.19;;;6.68;100.00
60373;BME280;46216;52.220;5.134;2023-01-15T04:38:42;99865.31;;;6.71;100.00
60373;BME280;46216;52.220;5.134;2023-01-15T04:41:08;99869.88;;;6.69;100.00
60373;BME280;46216;52.220;5.134;2023-01-15T04:43:52;99865.44;;;6.69;100.00
60373;BME280;46216;52.220;5.134;2023-01-15T04:46:38;99874.25;;;6.70;100.00
60373;BME280;46216;52.220;5.134;2023-01-15T04:49:05;99879.31;;;6.73;100.00
60373;BME280;46216;52.220;5.134;2023-01-15T04:51:31;99866.28;;;6.70;100.00
60373;BME280;46216;52.220;5.134;2023-01-15T04:53:56;99867.97;;;6.71;100.00
60373;BME280;46216;52.220;5.134;2023-01-15T04:56:22;99868.81;;;6.71;100.00
60373;BME280;46216;52.220;5.134;2023-01-15T04:58:47;99854.47;;;6.62;100.00
60373;BME280;46216;52.220;5.134;2023-01-15T05:01:14;99871.06;;;6.64;100.00
60373;BME280;46216;52.220;5.134;2023-01-15T05:03:40;99871.19;;;6.63;100.00
60373;BME280;46216;52.220;5.134;2023-01-15T05:06:06;99864.31;;;6.60;100.00
60373;BME280;46216;52.220;5.134;2023-01-15T05:08:31;99861.44;;;6.63;100.00
60373;BME280;46216;52.220;5.134;2023-01-15T05:11:03;99861.78;;;6.59;100.00
60373;BME280;46216;52.220;5.134;2023-01-15T05:13:29;99852.03;;;6.59;100.00
60373;BME280;46216;52.220;5.134;2023-01-15T05:16:06;99853.38;;;6.65;100.00
60373;BME280;46216;52.220;5.134;2023-01-15T05:18:31;99861.66;;;6.60;100.00
60373;BME280;46216;52.220;5.134;2023-01-15T05:20:57;99861.66;;;6.60;100.00
60373;BME280;46216;52.220;5.134;2023-01-15T05:23:23;99851.81;;;6.62;100.00
60373;BME280;46216;52.220;5.134;2023-01-15T05:25:48;99855.91;;;6.67;100.00
60373;BME280;46216;52.220;5.134;2023-01-15T05:28:14;99858.44;;;6.68;100.00
60373;BME280;46216;52.220;5.134;2023-01-15T05:30:39;99862.69;;;6.71;100.00
60373;BME280;46216;52.220;5.134;2023-01-15T05:33:04;99856.63;;;6.69;100.00
60373;BME280;46216;52.220;5.134;2023-01-15T05:35:30;99861.00;;;6.70;100.00
60373;BME280;46216;52.220;5.134;2023-01-15T05:37:55;99857.59;;;6.68;100.00
60373;BME280;46216;52.220;5.134;2023-01-15T05:40:20;99850.63;;;6.67;100.00
60373;BME280;46216;52.220;5.134;2023-01-15T05:42:46;99846.16;;;6.67;100.00
60373;BME280;46216;52.220;5.134;2023-01-15T05:45:11;99850.09;;;6.61;100.00
60373;BME280;46216;52.220;5.134;2023-01-15T05:47:36;99841.44;;;6.59;100.00
60373;BME280;46216;52.220;5.134;2023-01-15T05:50:02;99841.31;;;6.61;100.00
60373;BME280;46216;52.220;5.134;2023-01-15T05:52:27;99835.41;;;6.57;100.00
60373;BME280;46216;52.220;5.134;2023-01-15T05:54:53;99843.56;;;6.54;100.00
60373;BME280;46216;52.220;5.134;2023-01-15T05:57:18;99844.53;;;6.53;100.00
60373;BME280;46216;52.220;5.134;2023-01-15T05:59:43;99835.63;;;6.54;100.00
60373;BME280;46216;52.220;5.134;2023-01-15T06:02:09;99839.22;;;6.53;100.00
60373;BME280;46216;52.220;5.134;2023-01-15T06:04:34;99836.59;;;6.53;100.00
60373;BME280;46216;52.220;5.134;2023-01-15T06:06:59;99838.69;;;6.48;100.00
60373;BME280;46216;52.220;5.134;2023-01-15T06:09:25;99843.28;;;6.46;100.00
60373;BME280;46216;52.220;5.134;2023-01-15T06:11:52;99846.22;;;6.42;100.00
60373;BME280;46216;52.220;5.134;2023-01-15T06:14:18;99846.69;;;6.35;100.00
60373;BME280;46216;52.220;5.134;2023-01-15T06:16:44;99858.84;;;6.38;100.00
60373;BME280;46216;52.220;5.134;2023-01-15T06:19:11;99844.13;;;6.34;100.00
60373;BME280;46216;52.220;5.134;2023-01-15T06:21:36;99857.91;;;6.39;100.00
60373;BME280;46216;52.220;5.134;2023-01-15T06:24:02;99854.94;;;6.31;100.00
60373;BME280;46216;52.220;5.134;2023-01-15T06:26:28;99865.63;;;6.29;100.00
60373;BME280;46216;52.220;5.134;2023-01-15T06:28:53;99868.16;;;6.31;100.00
60373;BME280;46216;52.220;5.134;2023-01-15T06:31:21;99867.44;;;6.29;100.00
60373;BME280;46216;52.220;5.134;2023-01-15T06:33:46;99865.00;;;6.26;100.00
60373;BME280;46216;52.220;5.134;2023-01-15T06:36:14;99859.19;;;6.21;100.00
60373;BME280;46216;52.220;5.134;2023-01-15T06:38:40;99863.63;;;6.20;100.00
60373;BME280;46216;52.220;5.134;2023-01-15T06:41:09;99858.47;;;6.19;100.00
60373;BME280;46216;52.220;5.134;2023-01-15T06:43:54;99852.41;;;6.16;100.00
60373;BME280;46216;52.220;5.134;2023-01-15T06:46:44;99854.44;;;6.13;100.00
60373;BME280;46216;52.220;5.134;2023-01-15T06:49:29;99848.09;;;6.15;100.00
60373;BME280;46216;52.220;5.134;2023-01-15T06:51:55;99855.28;;;6.13;100.00
60373;BME280;46216;52.220;5.134;2023-01-15T06:54:20;99849.28;;;6.11;100.00
60373;BME280;46216;52.220;5.134;2023-01-15T06:56:45;99835.94;;;6.13;100.00
60373;BME280;46216;52.220;5.134;2023-01-15T06:59:11;99840.38;;;6.12;100.00
60373;BME280;46216;52.220;5.134;2023-01-15T07:01:36;99842.06;;;6.13;100.00
60373;BME280;46216;52.220;5.134;2023-01-15T07:04:01;99838.91;;;6.08;100.00
60373;BME280;46216;52.220;5.134;2023-01-15T07:06:27;99840.03;;;6.04;100.00
60373;BME280;46216;52.220;5.134;2023-01-15T07:08:52;99848.84;;;6.05;100.00
60373;BME280;46216;52.220;5.134;2023-01-15T07:11:17;99847.03;;;6.05;100.00
60373;BME280;46216;52.220;5.134;2023-01-15T07:13:43;99847.03;;;6.05;100.00
60373;BME280;46216;52.220;5.134;2023-01-15T07:16:08;99848.84;;;6.05;100.00
60373;BME280;46216;52.220;5.134;2023-01-15T07:18:53;99845.97;;;6.08;100.00
60373;BME280;46216;52.220;5.134;2023-01-15T07:21:19;99844.28;;;6.07;100.00
60373;BME280;46216;52.220;5.134;2023-01-15T07:23:44;99850.41;;;6.07;100.00
60373;BME280;46216;52.220;5.134;2023-01-15T07:26:09;99851.16;;;6.09;100.00
60373;BME280;46216;52.220;5.134;2023-01-15T07:28:35;99849.38;;;6.10;100.00
60373;BME280;46216;52.220;5.134;2023-01-15T07:31:00;99850.94;;;6.12;100.00
60373;BME280;46216;52.220;5.134;2023-01-15T07:33:25;99843.75;;;6.14;100.00
60373;BME280;46216;52.220;5.134;2023-01-15T07:35:51;99836.69;;;6.15;100.00
60373;BME280;46216;52.220;5.134;2023-01-15T07:38:16;99835.72;;;6.16;100.00
60373;BME280;46216;52.220;5.134;2023-01-15T07:40:41;99825.84;;;6.18;100.00
60373;BME280;46216;52.220;5.134;2023-01-15T07:43:08;99821.44;;;6.19;100.00
60373;BME280;46216;52.220;5.134;2023-01-15T07:45:52;99813.03;;;6.25;100.00
60373;BME280;46216;52.220;5.134;2023-01-15T07:48:36;99813.03;;;6.25;100.00
60373;BME280;46216;52.220;5.134;2023-01-15T07:51:20;99801.81;;;6.21;100.00
60373;BME280;46216;52.220;5.134;2023-01-15T07:53:45;99824.59;;;6.24;100.00
60373;BME280;46216;52.220;5.134;2023-01-15T07:56:10;99813.28;;;6.22;100.00
60373;BME280;46216;52.220;5.134;2023-01-15T07:58:36;99804.38;;;6.23;100.00
60373;BME280;46216;52.220;5.134;2023-01-15T08:01:01;99819.28;;;6.24;100.00
60373;BME280;46216;52.220;5.134;2023-01-15T08:03:26;99832.09;;;6.30;100.00
60373;BME280;46216;52.220;5.134;2023-01-15T08:05:52;99821.06;;;6.36;100.00
60373;BME280;46216;52.220;5.134;2023-01-15T08:08:17;99850.91;;;6.38;100.00
60373;BME280;46216;52.220;5.134;2023-01-15T08:10:43;99857.03;;;6.38;100.00
60373;BME280;46216;52.220;5.134;2023-01-15T08:13:29;99842.66;;;6.30;100.00
60373;BME280;46216;52.220;5.134;2023-01-15T08:16:12;99835.69;;;6.29;100.00
60373;BME280;46216;52.220;5.134;2023-01-15T08:18:38;99839.91;;;6.31;100.00
60373;BME280;46216;52.220;5.134;2023-01-15T08:21:04;99824.66;;;6.35;100.00
60373;BME280;46216;52.220;5.134;2023-01-15T08:23:29;99824.84;;;6.45;100.00
60373;BME280;46216;52.220;5.134;2023-01-15T08:25:58;99830.13;;;6.45;100.00
60373;BME280;46216;52.220;5.134;2023-01-15T08:28:24;99821.66;;;6.52;100.00
60373;BME280;46216;52.220;5.134;2023-01-15T08:30:49;99830.94;;;6.58;100.00
60373;BME280;46216;52.220;5.134;2023-01-15T08:33:14;99831.47;;;6.63;100.00
60373;BME280;46216;52.220;5.134;2023-01-15T08:35:39;99821.59;;;6.65;100.00
60373;BME280;46216;52.220;5.134;2023-01-15T08:38:06;99819.34;;;6.72;100.00
60373;BME280;46216;52.220;5.134;2023-01-15T08:40:33;99830.69;;;6.74;100.00
60373;BME280;46216;52.220;5.134;2023-01-15T08:43:00;99815.66;;;6.74;100.00
60373;BME280;46216;52.220;5.134;2023-01-15T08:45:25;99823.47;;;6.76;100.00
60373;BME280;46216;52.220;5.134;2023-01-15T08:47:54;99819.34;;;6.72;100.00
60373;BME280;46216;52.220;5.134;2023-01-15T08:50:19;99818.91;;;6.78;100.00
60373;BME280;46216;52.220;5.134;2023-01-15T08:52:44;99847.06;;;6.79;100.00
60373;BME280;46216;52.220;5.134;2023-01-15T08:55:10;99848.25;;;6.75;100.00
60373;BME280;46216;52.220;5.134;2023-01-15T08:57:35;99851.44;;;6.80;100.00
60373;BME280;46216;52.220;5.134;2023-01-15T09:00:02;99838.19;;;6.80;100.00
60373;BME280;46216;52.220;5.134;2023-01-15T09:02:28;99850.97;;;6.86;100.00
60373;BME280;46216;52.220;5.134;2023-01-15T09:04:53;99842.31;;;6.84;100.00
60373;BME280;46216;52.220;5.134;2023-01-15T09:07:19;99838.69;;;6.85;100.00
60373;BME280;46216;52.220;5.134;2023-01-15T09:09:44;99828.72;;;6.88;100.00
60373;BME280;46216;52.220;5.134;2023-01-15T09:12:09;99836.78;;;6.87;100.00
60373;BME280;46216;52.220;5.134;2023-01-15T09:14:35;99845.00;;;6.95;100.00
60373;BME280;46216;52.220;5.134;2023-01-15T09:17:00;99841.06;;;7.01;100.00
60373;BME280;46216;52.220;5.134;2023-01-15T09:19:25;99836.25;;;7.06;100.00
60373;BME280;46216;52.220;5.134;2023-01-15T09:21:51;99832.31;;;7.11;100.00
60373;BME280;46216;52.220;5.134;2023-01-15T09:24:16;99848.94;;;7.14;100.00
60373;BME280;46216;52.220;5.134;2023-01-15T09:26:41;99840.03;;;7.15;100.00
60373;BME280;46216;52.220;5.134;2023-01-15T09:29:07;99843.41;;;7.17;100.00
60373;BME280;46216;52.220;5.134;2023-01-15T09:31:33;99823.91;;;7.18;100.00
60373;BME280;46216;52.220;5.134;2023-01-15T09:33:58;99842.00;;;7.24;100.00
60373;BME280;46216;52.220;5.134;2023-01-15T09:36:27;99821.53;;;7.26;100.00
60373;BME280;46216;52.220;5.134;2023-01-15T09:38:54;99819.63;;;7.28;100.00
60373;BME280;46216;52.220;5.134;2023-01-15T09:41:21;99817.66;;;7.30;100.00
60373;BME280;46216;52.220;5.134;2023-01-15T09:46:53;99833.13;;;7.36;100.00
60373;BME280;46216;52.220;5.134;2023-01-15T09:49:34;99833.84;;;7.38;100.00
60373;BME280;46216;52.220;5.134;2023-01-15T09:55:02;99823.03;;;7.41;100.00
60373;BME280;46216;52.220;5.134;2023-01-15T09:57:30;99836.28;;;7.41;100.00
60373;BME280;46216;52.220;5.134;2023-01-15T09:59:56;99825.44;;;7.44;100.00
60373;BME280;46216;52.220;5.134;2023-01-15T10:02:39;99836.06;;;7.44;100.00
60373;BME280;46216;52.220;5.134;2023-01-15T10:05:20;99860.03;;;7.19;100.00
60373;BME280;46216;52.220;5.134;2023-01-15T10:08:01;99868.03;;;7.06;100.00
60373;BME280;46216;52.220;5.134;2023-01-15T10:10:32;99868.34;;;6.90;100.00
60373;BME280;46216;52.220;5.134;2023-01-15T10:13:10;99860.53;;;6.76;100.00
60373;BME280;46216;52.220;5.134;2023-01-15T10:15:43;99860.78;;;6.73;100.00
60373;BME280;46216;52.220;5.134;2023-01-15T10:18:14;99862.91;;;6.68;100.00
60373;BME280;46216;52.220;5.134;2023-01-15T10:20:48;99857.59;;;6.68;100.00
60373;BME280;46216;52.220;5.134;2023-01-15T10:23:35;99873.06;;;6.74;100.00
60373;BME280;46216;52.220;5.134;2023-01-15T10:26:12;99883.44;;;6.77;100.00
60373;BME280;46216;52.220;5.134;2023-01-15T10:28:56;99864.66;;;6.80;100.00
60373;BME280;46216;52.220;5.134;2023-01-15T10:31:34;99872.16;;;6.86;100.00
60373;BME280;46216;52.220;5.134;2023-01-15T10:36:55;99870.25;;;6.88;100.00
60373;BME280;46216;52.220;5.134;2023-01-15T10:45:10;99875.06;;;7.07;100.00
60373;BME280;46216;52.220;5.134;2023-01-15T10:47:38;99872.06;;;7.11;100.00
60373;BME280;46216;52.220;5.134;2023-01-15T10:50:15;99881.59;;;7.14;100.00
60373;BME280;46216;52.220;5.134;2023-01-15T10:52:43;99871.59;;;7.18;100.00
60373;BME280;46216;52.220;5.134;2023-01-15T10:55:26;99872.00;;;7.24;100.00
60373;BME280;46216;52.220;5.134;2023-01-15T10:58:02;99884.88;;;7.29;100.00
60373;BME280;46216;52.220;5.134;2023-01-15T11:00:31;99873.09;;;7.33;100.00
60373;BME280;46216;52.220;5.134;2023-01-15T11:05:21;99870.28;;;7.47;100.00
60373;BME280;46216;52.220;5.134;2023-01-15T11:07:50;99879.91;;;7.48;100.00
60373;BME280;46216;52.220;5.134;2023-01-15T11:10:18;99875.44;;;7.49;100.00
60373;BME280;46216;52.220;5.134;2023-01-15T11:12:50;99880.41;;;7.53;100.00
60373;BME280;46216;52.220;5.134;2023-01-15T11:15:35;99874.63;;;7.48;100.00
60373;BME280;46216;52.220;5.134;2023-01-15T11:18:30;99880.13;;;7.45;100.00
60373;BME280;46216;52.220;5.134;2023-01-15T11:21:19;99865.91;;;7.46;100.00
60373;BME280;46216;52.220;5.134;2023-01-15T11:23:45;99862.81;;;7.52;100.00
60373;BME280;46216;52.220;5.134;2023-01-15T11:26:31;99860.16;;;7.52;100.00
60373;BME280;46216;52.220;5.134;2023-01-15T11:28:58;99860.31;;;7.62;100.00
60373;BME280;46216;52.220;5.134;2023-01-15T11:31:39;99859.34;;;7.63;100.00
60373;BME280;46216;52.220;5.134;2023-01-15T11:34:19;99854.88;;;7.64;100.00
60373;BME280;46216;52.220;5.134;2023-01-15T11:36:46;99850.31;;;7.66;100.00
60373;BME280;46216;52.220;5.134;2023-01-15T11:39:25;99837.16;;;7.64;100.00
60373;BME280;46216;52.220;5.134;2023-01-15T11:42:11;99860.69;;;7.69;100.00
60373;BME280;46216;52.220;5.134;2023-01-15T11:44:58;99849.63;;;7.75;100.00
60373;BME280;46216;52.220;5.134;2023-01-15T11:47:52;99860.00;;;7.78;100.00
60373;BME280;46216;52.220;5.134;2023-01-15T11:50:48;99847.44;;;7.80;100.00
60373;BME280;46216;52.220;5.134;2023-01-15T11:53:19;99859.50;;;7.84;100.00
60373;BME280;46216;52.220;5.134;2023-01-15T11:55:53;99853.59;;;7.80;100.00
60373;BME280;46216;52.220;5.134;2023-01-15T11:58:20;99850.31;;;7.77;100.00
60373;BME280;46216;52.220;5.134;2023-01-15T12:00:48;99857.69;;;7.73;100.00
60373;BME280;46216;52.220;5.134;2023-01-15T12:03:21;99865.53;;;7.75;100.00
60373;BME280;46216;52.220;5.134;2023-01-15T12:05:54;99860.31;;;7.73;100.00
60373;BME280;46216;52.220;5.134;2023-01-15T12:10:56;99857.06;;;7.70;100.00
60373;BME280;46216;52.220;5.134;2023-01-15T12:28:11;99888.69;;;7.38;100.00
60373;BME280;46216;52.220;5.134;2023-01-15T12:31:01;99878.16;;;7.36;100.00
60373;BME280;46216;52.220;5.134;2023-01-15T12:33:50;99888.91;;;7.34;100.00
60373;BME280;46216;52.220;5.134;2023-01-15T12:36:20;99885.28;;;7.35;100.00
60373;BME280;46216;52.220;5.134;2023-01-15T12:38:54;99874.09;;;7.43;100.00
60373;BME280;46216;52.220;5.134;2023-01-15T12:41:31;99876.69;;;7.56;100.00
60373;BME280;46216;52.220;5.134;2023-01-15T12:50:41;99872.81;;;7.60;100.00
60373;BME280;46216;52.220;5.134;2023-01-15T12:55:59;99894.97;;;7.48;100.00
60373;BME280;46216;52.220;5.134;2023-01-15T12:58:49;99891.09;;;7.41;100.00
60373;BME280;46216;52.220;5.134;2023-01-15T13:01:28;99885.91;;;7.39;100.00
60373;BME280;46216;52.220;5.134;2023-01-15T13:06:51;99891.72;;;7.44;100.00
60373;BME280;46216;52.220;5.134;2023-01-15T13:09:30;99880.13;;;7.45;100.00
60373;BME280;46216;52.220;5.134;2023-01-15T13:11:58;99880.97;;;7.46;100.00
60373;BME280;46216;52.220;5.134;2023-01-15T13:14:23;99876.28;;;7.49;100.00
60373;BME280;46216;52.220;5.134;2023-01-15T13:17:05;99875.84;;;7.55;100.00
60373;BME280;46216;52.220;5.134;2023-01-15T13:19:51;99865.63;;;7.62;100.00
60373;BME280;46216;52.220;5.134;2023-01-15T13:22:25;99872.97;;;7.70;100.00
60373;BME280;46216;52.220;5.134;2023-01-15T13:27:56;99863.34;;;7.80;100.00
60373;BME280;46216;52.220;5.134;2023-01-15T13:30:52;99866.50;;;7.85;100.00
60373;BME280;46216;52.220;5.134;2023-01-15T13:36:11;99894.94;;;7.83;100.00
60373;BME280;46216;52.220;5.134;2023-01-15T13:38:50;99875.19;;;7.87;100.00
60373;BME280;46216;52.220;5.134;2023-01-15T13:41:20;99864.34;;;7.90;100.00
60373;BME280;46216;52.220;5.134;2023-01-15T13:44:14;99867.59;;;7.94;100.00
60373;BME280;46216;52.220;5.134;2023-01-15T13:46:42;99877.00;;;7.98;100.00
60373;BME280;46216;52.220;5.134;2023-01-15T13:49:18;99873.88;;;7.93;100.00
60373;BME280;46216;52.220;5.134;2023-01-15T13:51:48;99876.66;;;8.02;100.00
60373;BME280;46216;52.220;5.134;2023-01-15T13:54:17;99880.91;;;8.05;100.00
60373;BME280;46216;52.220;5.134;2023-01-15T13:56:44;99882.34;;;8.09;100.00
60373;BME280;46216;52.220;5.134;2023-01-15T13:59:42;99882.34;;;8.09;100.00
60373;BME280;46216;52.220;5.134;2023-01-15T14:02:28;99874.75;;;8.16;100.00
60373;BME280;46216;52.220;5.134;2023-01-15T14:04:54;99889.22;;;8.23;100.00
60373;BME280;46216;52.220;5.134;2023-01-15T14:07:29;99879.44;;;8.23;100.00
60373;BME280;46216;52.220;5.134;2023-01-15T14:15:29;99892.13;;;8.20;100.00
60373;BME280;46216;52.220;5.134;2023-01-15T14:18:02;99898.88;;;8.13;100.00
60373;BME280;46216;52.220;5.134;2023-01-15T14:20:55;99891.25;;;8.08;100.00
60373;BME280;46216;52.220;5.134;2023-01-15T14:34:33;99921.53;;;8.05;100.00
60373;BME280;46216;52.220;5.134;2023-01-15T14:37:05;99922.50;;;8.16;100.00
60373;BME280;46216;52.220;5.134;2023-01-15T14:39:52;99933.00;;;8.17;100.00